sensor_id;sensor_type;location;lat;lon;timestamp;pressure;altitude;pressure_sealevel;temperature;humidity
20656;BME280;10487;53.320;8.672;2022-09-17T00:01:36;100392.13;;;10.40;58.52
20656;BME280;10487;53.320;8.672;2022-09-17T00:04:38;100400.22;;;10.39;58.68
20656;BME280;10487;53.320;8.672;2022-09-17T00:07:40;100391.50;;;10.37;58.59
20656;BME280;10487;53.320;8.672;2022-09-17T00:10:43;100396.13;;;10.35;58.53
20656;BME280;10487;53.320;8.672;2022-09-17T00:13:45;100391.97;;;10.31;58.51
20656;BME280;10487;53.320;8.672;2022-09-17T00:16:47;100394.03;;;10.27;58.47
20656;BME280;10487;53.320;8.672;2022-09-17T00:19:52;100398.66;;;10.25;58.55
20656;BME280;10487;53.320;8.672;2022-09-17T00:22:53;100408.56;;;10.23;58.52
20656;BME280;10487;53.320;8.672;2022-09-17T00:25:55;100411.50;;;10.20;58.66
20656;BME280;10487;53.320;8.672;2022-09-17T00:28:57;100409.78;;;10.19;58.63
20656;BME280;10487;53.320;8.672;2022-09-17T00:32:00;100405.41;;;10.18;58.64
20656;BME280;10487;53.320;8.672;2022-09-17T00:35:01;100408.34;;;10.15;58.85
20656;BME280;10487;53.320;8.672;2022-09-17T00:38:03;100412.94;;;10.13;58.56
20656;BME280;10487;53.320;8.672;2022-09-17T00:41:06;100413.75;;;10.14;58.70
20656;BME280;10487;53.320;8.672;2022-09-17T00:47:52;100421.16;;;10.10;58.67
20656;BME280;10487;53.320;8.672;2022-09-17T00:50:56;100420.44;;;10.08;58.67
20656;BME280;10487;53.320;8.672;2022-09-17T00:54:03;100429.53;;;10.06;58.84
20656;BME280;10487;53.320;8.672;2022-09-17T00:57:07;100424.28;;;10.04;58.69
20656;BME280;10487;53.320;8.672;2022-09-17T01:00:09;100428.03;;;10.02;58.62
20656;BME280;10487;53.320;8.672;2022-09-17T01:03:12;100428.16;;;10.00;58.67
20656;BME280;10487;53.320;8.672;2022-09-17T01:15:48;100425.00;;;9.95;58.67
20656;BME280;10487;53.320;8.672;2022-09-17T01:39:26;100437.31;;;9.85;58.80
20656;BME280;10487;53.320;8.672;2022-09-17T01:42:45;100428.47;;;9.84;58.74
20656;BME280;10487;53.320;8.672;2022-09-17T01:48:51;100438.16;;;9.85;58.85
20656;BME280;10487;53.320;8.672;2022-09-17T01:51:57;100453.19;;;9.86;58.88
20656;BME280;10487;53.320;8.672;2022-09-17T01:55:04;100450.63;;;9.85;58.78
20656;BME280;10487;53.320;8.672;2022-09-17T01:58:25;100455.25;;;9.83;58.88
20656;BME280;10487;53.320;8.672;2022-09-17T02:01:30;100466.84;;;9.82;58.86
20656;BME280;10487;53.320;8.672;2022-09-17T02:04:39;100469.75;;;9.79;58.86
20656;BME280;10487;53.320;8.672;2022-09-17T02:07:46;100462.81;;;9.76;58.81
20656;BME280;10487;53.320;8.672;2022-09-17T02:11:06;100465.63;;;9.75;58.82
20656;BME280;10487;53.320;8.672;2022-09-17T02:14:12;100467.53;;;9.73;58.89
20656;BME280;10487;53.320;8.672;2022-09-17T02:20:25;100453.50;;;9.71;58.96
20656;BME280;10487;53.320;8.672;2022-09-17T02:23:34;100460.63;;;9.70;58.97
20656;BME280;10487;53.320;8.672;2022-09-17T02:26:41;100480.22;;;9.69;59.08
20656;BME280;10487;53.320;8.672;2022-09-17T02:29:45;100489.28;;;9.67;58.96
20656;BME280;10487;53.320;8.672;2022-09-17T02:32:47;100481.53;;;9.64;58.86
20656;BME280;10487;53.320;8.672;2022-09-17T02:35:49;100480.78;;;9.62;59.04
20656;BME280;10487;53.320;8.672;2022-09-17T02:38:58;100476.44;;;9.61;58.95
20656;BME280;10487;53.320;8.672;2022-09-17T02:55:19;100456.53;;;9.54;59.01
20656;BME280;10487;53.320;8.672;2022-09-17T02:58:29;100461.75;;;9.55;59.05
20656;BME280;10487;53.320;8.672;2022-09-17T03:01:38;100458.13;;;9.56;59.02
20656;BME280;10487;53.320;8.672;2022-09-17T03:04:43;100455.44;;;9.56;59.00
20656;BME280;10487;53.320;8.672;2022-09-17T03:07:47;100457.28;;;9.56;59.00
20656;BME280;10487;53.320;8.672;2022-09-17T03:10:48;100462.63;;;9.56;59.09
20656;BME280;10487;53.320;8.672;2022-09-17T03:13:50;100462.63;;;9.56;59.10
20656;BME280;10487;53.320;8.672;2022-09-17T03:16:52;100460.06;;;9.54;59.01
20656;BME280;10487;53.320;8.672;2022-09-17T03:19:53;100460.19;;;9.53;59.06
20656;BME280;10487;53.320;8.672;2022-09-17T03:22:55;100460.19;;;9.53;59.09
20656;BME280;10487;53.320;8.672;2022-09-17T03:25:57;100467.31;;;9.52;59.12
20656;BME280;10487;53.320;8.672;2022-09-17T03:28:59;100467.31;;;9.52;59.10
20656;BME280;10487;53.320;8.672;2022-09-17T03:32:01;100472.75;;;9.51;59.15
20656;BME280;10487;53.320;8.672;2022-09-17T03:35:02;100472.75;;;9.51;59.13
20656;BME280;10487;53.320;8.672;2022-09-17T03:38:04;100476.38;;;9.50;58.98
20656;BME280;10487;53.320;8.672;2022-09-17T03:41:06;100477.44;;;9.47;59.29
20656;BME280;10487;53.320;8.672;2022-09-17T03:44:08;100474.06;;;9.45;59.07
20656;BME280;10487;53.320;8.672;2022-09-17T03:47:10;100476.06;;;9.42;59.24
20656;BME280;10487;53.320;8.672;2022-09-17T03:50:12;100475.13;;;9.43;59.16
20656;BME280;10487;53.320;8.672;2022-09-17T03:53:15;100475.25;;;9.41;59.17
20656;BME280;10487;53.320;8.672;2022-09-17T03:56:17;100471.72;;;9.41;59.22
20656;BME280;10487;53.320;8.672;2022-09-17T03:59:18;100469.06;;;9.41;59.22
20656;BME280;10487;53.320;8.672;2022-09-17T04:02:20;100472.81;;;9.38;59.15
20656;BME280;10487;53.320;8.672;2022-09-17T04:05:22;100474.63;;;9.38;59.26
20656;BME280;10487;53.320;8.672;2022-09-17T04:08:24;100477.28;;;9.38;59.21
20656;BME280;10487;53.320;8.672;2022-09-17T04:11:26;100488.88;;;9.37;59.23
20656;BME280;10487;53.320;8.672;2022-09-17T04:14:27;100487.28;;;9.34;59.26
20656;BME280;10487;53.320;8.672;2022-09-17T04:17:29;100500.72;;;9.33;59.19
20656;BME280;10487;53.320;8.672;2022-09-17T04:20:30;100507.97;;;9.31;59.30
20656;BME280;10487;53.320;8.672;2022-09-17T04:23:32;100509.22;;;9.25;59.23
20656;BME280;10487;53.320;8.672;2022-09-17T04:26:33;100507.84;;;9.19;59.09
20656;BME280;10487;53.320;8.672;2022-09-17T04:29:35;100492.31;;;9.13;59.24
20656;BME280;10487;53.320;8.672;2022-09-17T04:32:37;100504.03;;;9.11;59.27
20656;BME280;10487;53.320;8.672;2022-09-17T04:35:38;100510.31;;;9.10;59.28
20656;BME280;10487;53.320;8.672;2022-09-17T04:38:40;100507.78;;;9.08;59.32
20656;BME280;10487;53.320;8.672;2022-09-17T04:41:41;100523.00;;;9.06;59.33
20656;BME280;10487;53.320;8.672;2022-09-17T04:44:43;100529.50;;;9.02;59.23
20656;BME280;10487;53.320;8.672;2022-09-17T04:47:44;100522.69;;;8.98;59.28
20656;BME280;10487;53.320;8.672;2022-09-17T04:50:46;100511.31;;;8.96;59.24
20656;BME280;10487;53.320;8.672;2022-09-17T04:53:48;100511.41;;;8.95;59.21
20656;BME280;10487;53.320;8.672;2022-09-17T04:56:50;100518.53;;;8.94;59.41
20656;BME280;10487;53.320;8.672;2022-09-17T04:59:51;100504.47;;;8.92;59.37
20656;BME280;10487;53.320;8.672;2022-09-17T05:02:54;100501.81;;;8.92;59.32
20656;BME280;10487;53.320;8.672;2022-09-17T05:05:55;100497.47;;;8.91;59.22
20656;BME280;10487;53.320;8.672;2022-09-17T05:08:57;100498.31;;;8.92;59.43
20656;BME280;10487;53.320;8.672;2022-09-17T05:11:59;100498.31;;;8.92;59.24
20656;BME280;10487;53.320;8.672;2022-09-17T05:15:01;100502.81;;;8.91;59.31
20656;BME280;10487;53.320;8.672;2022-09-17T05:18:02;100504.69;;;8.89;59.21
20656;BME280;10487;53.320;8.672;2022-09-17T05:21:04;100497.47;;;8.91;59.26
20656;BME280;10487;53.320;8.672;2022-09-17T05:24:06;100505.47;;;8.91;59.28
20656;BME280;10487;53.320;8.672;2022-09-17T05:27:08;100508.22;;;8.90;59.17
20656;BME280;10487;53.320;8.672;2022-09-17T05:30:10;100506.53;;;8.89;59.26
20656;BME280;10487;53.320;8.672;2022-09-17T05:33:13;100504.94;;;8.86;59.22
20656;BME280;10487;53.320;8.672;2022-09-17T05:36:14;100506.84;;;8.84;59.29
20656;BME280;10487;53.320;8.672;2022-09-17T05:39:16;100507.78;;;8.83;59.40
20656;BME280;10487;53.320;8.672;2022-09-17T05:42:17;100510.34;;;8.85;59.37
20656;BME280;10487;53.320;8.672;2022-09-17T05:45:19;100505.88;;;8.85;59.33
20656;BME280;10487;53.320;8.672;2022-09-17T05:48:21;100504.59;;;9.03;59.93
20656;BME280;10487;53.320;8.672;2022-09-17T05:51:23;100500.91;;;9.42;59.91
20656;BME280;10487;53.320;8.672;2022-09-17T05:54:25;100502.06;;;9.51;59.38
20656;BME280;10487;53.320;8.672;2022-09-17T05:57:28;100511.00;;;9.50;59.33
20656;BME280;10487;53.320;8.672;2022-09-17T06:00:30;100505.88;;;9.47;59.27
20656;BME280;10487;53.320;8.672;2022-09-17T06:03:32;100509.53;;;9.46;59.27
20656;BME280;10487;53.320;8.672;2022-09-17T06:06:34;100517.22;;;9.38;59.29
20656;BME280;10487;53.320;8.672;2022-09-17T06:09:36;100519.47;;;9.31;59.44
20656;BME280;10487;53.320;8.672;2022-09-17T06:12:38;100515.28;;;9.27;59.31
20656;BME280;10487;53.320;8.672;2022-09-17T06:15:40;100521.88;;;9.21;59.37
20656;BME280;10487;53.320;8.672;2022-09-17T06:18:42;100523.09;;;9.17;59.30
20656;BME280;10487;53.320;8.672;2022-09-17T06:21:43;100524.28;;;9.13;59.30
20656;BME280;10487;53.320;8.672;2022-09-17T06:24:47;100528.09;;;9.09;59.28
20656;BME280;10487;53.320;8.672;2022-09-17T06:27:48;100530.22;;;9.04;59.28
20656;BME280;10487;53.320;8.672;2022-09-17T06:30:50;100531.19;;;9.03;59.29
20656;BME280;10487;53.320;8.672;2022-09-17T06:33:56;100525.13;;;9.01;59.39
20656;BME280;10487;53.320;8.672;2022-09-17T06:36:58;100527.81;;;9.01;59.28
20656;BME280;10487;53.320;8.672;2022-09-17T06:40:00;100521.72;;;8.99;59.35
20656;BME280;10487;53.320;8.672;2022-09-17T06:43:02;100527.03;;;8.99;59.46
20656;BME280;10487;53.320;8.672;2022-09-17T06:46:04;100528.63;;;9.14;59.77
20656;BME280;10487;53.320;8.672;2022-09-17T06:49:06;100521.69;;;9.24;59.47
20656;BME280;10487;53.320;8.672;2022-09-17T06:52:08;100529.44;;;9.27;59.37
20656;BME280;10487;53.320;8.672;2022-09-17T06:55:10;100529.34;;;9.29;59.41
20656;BME280;10487;53.320;8.672;2022-09-17T06:58:12;100518.69;;;9.29;59.35
20656;BME280;10487;53.320;8.672;2022-09-17T07:01:13;100515.06;;;9.30;59.21
20656;BME280;10487;53.320;8.672;2022-09-17T07:04:15;100525.72;;;9.30;59.33
20656;BME280;10487;53.320;8.672;2022-09-17T07:07:19;100533.63;;;9.32;59.20
20656;BME280;10487;53.320;8.672;2022-09-17T07:10:21;100542.47;;;9.32;59.20
20656;BME280;10487;53.320;8.672;2022-09-17T07:13:27;100539.81;;;9.32;59.28
20656;BME280;10487;53.320;8.672;2022-09-17T07:16:29;100544.06;;;9.35;59.20
20656;BME280;10487;53.320;8.672;2022-09-17T07:19:33;100546.63;;;9.36;59.20
20656;BME280;10487;53.320;8.672;2022-09-17T07:22:35;100540.22;;;9.39;59.17
20656;BME280;10487;53.320;8.672;2022-09-17T07:25:37;100527.44;;;9.44;59.27
20656;BME280;10487;53.320;8.672;2022-09-17T07:28:39;100530.63;;;9.49;59.11
20656;BME280;10487;53.320;8.672;2022-09-17T07:31:42;100532.22;;;9.51;59.13
20656;BME280;10487;53.320;8.672;2022-09-17T07:34:44;100542.75;;;9.53;59.22
20656;BME280;10487;53.320;8.672;2022-09-17T07:37:46;100546.78;;;9.58;59.15
20656;BME280;10487;53.320;8.672;2022-09-17T07:41:05;100548.03;;;9.65;59.13
20656;BME280;10487;53.320;8.672;2022-09-17T07:44:07;100553.84;;;9.83;59.36
20656;BME280;10487;53.320;8.672;2022-09-17T07:47:10;100552.19;;;9.93;59.24
20656;BME280;10487;53.320;8.672;2022-09-17T07:50:11;100557.28;;;9.96;59.17
20656;BME280;10487;53.320;8.672;2022-09-17T07:53:14;100547.38;;;9.98;59.00
20656;BME280;10487;53.320;8.672;2022-09-17T07:56:15;100550.03;;;9.98;59.07
20656;BME280;10487;53.320;8.672;2022-09-17T07:59:17;100548.84;;;10.02;59.28
20656;BME280;10487;53.320;8.672;2022-09-17T08:02:19;100555.53;;;10.08;59.19
20656;BME280;10487;53.320;8.672;2022-09-17T08:05:25;100549.34;;;10.07;59.01
20656;BME280;10487;53.320;8.672;2022-09-17T08:08:27;100561.72;;;10.08;59.08
20656;BME280;10487;53.320;8.672;2022-09-17T08:11:30;100550.19;;;10.08;59.30
20656;BME280;10487;53.320;8.672;2022-09-17T08:14:51;100543.28;;;10.05;59.15
20656;BME280;10487;53.320;8.672;2022-09-17T08:17:53;100538.03;;;10.04;59.11
20656;BME280;10487;53.320;8.672;2022-09-17T08:20:59;100539.75;;;10.05;59.16
20656;BME280;10487;53.320;8.672;2022-09-17T08:24:01;100554.56;;;10.09;59.14
20656;BME280;10487;53.320;8.672;2022-09-17T08:27:03;100549.13;;;10.10;59.11
20656;BME280;10487;53.320;8.672;2022-09-17T08:30:06;100558.72;;;10.13;59.16
20656;BME280;10487;53.320;8.672;2022-09-17T08:33:08;100553.97;;;10.16;59.05
20656;BME280;10487;53.320;8.672;2022-09-17T08:36:11;100549.88;;;10.23;59.09
20656;BME280;10487;53.320;8.672;2022-09-17T08:39:13;100545.31;;;10.25;59.04
20656;BME280;10487;53.320;8.672;2022-09-17T08:42:45;100552.31;;;10.26;59.06
20656;BME280;10487;53.320;8.672;2022-09-17T08:45:54;100567.38;;;10.27;59.02
20656;BME280;10487;53.320;8.672;2022-09-17T08:49:15;100584.22;;;10.28;59.06
20656;BME280;10487;53.320;8.672;2022-09-17T09:02:20;100578.16;;;10.02;58.98
20656;BME280;10487;53.320;8.672;2022-09-17T09:05:41;100587.06;;;9.90;58.95
20656;BME280;10487;53.320;8.672;2022-09-17T09:08:52;100593.16;;;9.79;58.96
20656;BME280;10487;53.320;8.672;2022-09-17T09:12:24;100593.84;;;9.70;59.00
20656;BME280;10487;53.320;8.672;2022-09-17T09:16:09;100601.53;;;9.62;59.07
20656;BME280;10487;53.320;8.672;2022-09-17T09:25:41;100588.22;;;9.50;59.29
20656;BME280;10487;53.320;8.672;2022-09-17T09:35:43;100610.19;;;9.41;59.23
20656;BME280;10487;53.320;8.672;2022-09-17T09:42:17;100584.00;;;9.35;59.23
20656;BME280;10487;53.320;8.672;2022-09-17T09:55:41;100553.75;;;9.23;59.20
20656;BME280;10487;53.320;8.672;2022-09-17T09:58:50;100548.41;;;9.23;59.35
20656;BME280;10487;53.320;8.672;2022-09-17T10:01:52;100544.03;;;9.22;59.24
20656;BME280;10487;53.320;8.672;2022-09-17T10:05:08;100539.56;;;9.22;59.27
20656;BME280;10487;53.320;8.672;2022-09-17T10:08:13;100560.88;;;9.22;59.15
20656;BME280;10487;53.320;8.672;2022-09-17T10:11:29;100554.81;;;9.20;59.25
20656;BME280;10487;53.320;8.672;2022-09-17T10:14:36;100551.50;;;9.17;59.19
20656;BME280;10487;53.320;8.672;2022-09-17T10:17:37;100552.56;;;9.14;59.21
20656;BME280;10487;53.320;8.672;2022-09-17T10:20:59;100554.69;;;9.09;59.28
20656;BME280;10487;53.320;8.672;2022-09-17T10:24:02;100554.94;;;9.06;59.34
20656;BME280;10487;53.320;8.672;2022-09-17T10:27:13;100557.81;;;9.03;59.35
20656;BME280;10487;53.320;8.672;2022-09-17T10:30:17;100560.81;;;8.99;59.22
20656;BME280;10487;53.320;8.672;2022-09-17T10:33:26;100550.97;;;8.99;59.28
20656;BME280;10487;53.320;8.672;2022-09-17T10:36:43;100538.75;;;8.97;59.38
20656;BME280;10487;53.320;8.672;2022-09-17T10:39:45;100543.31;;;8.95;59.50
20656;BME280;10487;53.320;8.672;2022-09-17T10:43:12;100550.44;;;8.94;59.42
20656;BME280;10487;53.320;8.672;2022-09-17T10:46:18;100535.25;;;8.96;59.49
20656;BME280;10487;53.320;8.672;2022-09-17T10:49:35;100527.16;;;8.98;59.43
20656;BME280;10487;53.320;8.672;2022-09-17T10:52:39;100526.81;;;9.02;59.58
20656;BME280;10487;53.320;8.672;2022-09-17T11:05:40;100511.06;;;8.99;59.54
20656;BME280;10487;53.320;8.672;2022-09-17T11:35:47;100507.03;;;9.06;59.58
20656;BME280;10487;53.320;8.672;2022-09-17T11:38:52;100503.41;;;9.07;59.54
20656;BME280;10487;53.320;8.672;2022-09-17T11:41:57;100492.88;;;9.06;59.49
20656;BME280;10487;53.320;8.672;2022-09-17T11:45:32;100503.53;;;9.06;59.55
20656;BME280;10487;53.320;8.672;2022-09-17T11:48:44;100508.31;;;9.01;59.62
20656;BME280;10487;53.320;8.672;2022-09-17T11:51:50;100501.28;;;9.00;59.56
20656;BME280;10487;53.320;8.672;2022-09-17T11:58:43;100491.50;;;9.00;59.77
20656;BME280;10487;53.320;8.672;2022-09-17T12:01:55;100494.88;;;9.02;59.78
20656;BME280;10487;53.320;8.672;2022-09-17T12:05:08;100491.16;;;9.05;59.80
20656;BME280;10487;53.320;8.672;2022-09-17T12:08:37;100487.44;;;9.07;59.76
20656;BME280;10487;53.320;8.672;2022-09-17T12:11:54;100481.91;;;9.10;59.89
20656;BME280;10487;53.320;8.672;2022-09-17T12:15:03;100481.66;;;9.39;60.20
20656;BME280;10487;53.320;8.672;2022-09-17T12:21:37;100493.22;;;9.50;59.84
20656;BME280;10487;53.320;8.672;2022-09-17T12:24:40;100495.03;;;9.50;59.81
20656;BME280;10487;53.320;8.672;2022-09-17T12:27:49;100493.34;;;9.49;59.86
20656;BME280;10487;53.320;8.672;2022-09-17T12:31:03;100483.63;;;9.48;59.76
20656;BME280;10487;53.320;8.672;2022-09-17T12:44:17;100445.63;;;9.46;59.92
20656;BME280;10487;53.320;8.672;2022-09-17T12:54:47;100455.38;;;9.58;60.05
20656;BME280;10487;53.320;8.672;2022-09-17T12:57:49;100459.41;;;9.63;59.97
20656;BME280;10487;53.320;8.672;2022-09-17T13:01:27;100476.72;;;9.69;59.95
20656;BME280;10487;53.320;8.672;2022-09-17T13:21:40;100461.94;;;9.65;59.83
20656;BME280;10487;53.320;8.672;2022-09-17T13:24:45;100466.41;;;9.64;59.81
20656;BME280;10487;53.320;8.672;2022-09-17T13:27:50;100461.06;;;9.64;59.92
20656;BME280;10487;53.320;8.672;2022-09-17T13:31:03;100451.28;;;9.65;59.89
20656;BME280;10487;53.320;8.672;2022-09-17T13:37:20;100457.22;;;9.68;59.95
20656;BME280;10487;53.320;8.672;2022-09-17T13:40:26;100463.16;;;9.72;59.95
20656;BME280;10487;53.320;8.672;2022-09-17T13:43:28;100460.28;;;9.75;60.06
20656;BME280;10487;53.320;8.672;2022-09-17T13:46:31;100461.75;;;9.79;59.88
20656;BME280;10487;53.320;8.672;2022-09-17T13:49:34;100486.47;;;9.81;59.95
20656;BME280;10487;53.320;8.672;2022-09-17T13:55:46;100481.53;;;9.87;59.98
20656;BME280;10487;53.320;8.672;2022-09-17T13:58:48;100482.25;;;9.89;59.89
20656;BME280;10487;53.320;8.672;2022-09-17T14:05:43;100480.22;;;9.93;59.83
20656;BME280;10487;53.320;8.672;2022-09-17T14:11:50;100468.94;;;9.89;59.92
20656;BME280;10487;53.320;8.672;2022-09-17T14:14:51;100467.34;;;9.87;59.92
20656;BME280;10487;53.320;8.672;2022-09-17T14:17:53;100477.16;;;9.86;59.96
20656;BME280;10487;53.320;8.672;2022-09-17T14:24:58;100480.56;;;9.88;59.94
20656;BME280;10487;53.320;8.672;2022-09-17T14:27:56;100474.28;;;9.89;60.11
20656;BME280;10487;53.320;8.672;2022-09-17T14:31:01;100477.16;;;10.10;60.20
20656;BME280;10487;53.320;8.672;2022-09-17T14:34:15;100468.78;;;10.15;59.97
20656;BME280;10487;53.320;8.672;2022-09-17T14:37:19;100488.31;;;10.15;59.88
20656;BME280;10487;53.320;8.672;2022-09-17T14:40:23;100501.75;;;10.14;60.05
20656;BME280;10487;53.320;8.672;2022-09-17T14:43:51;100510.59;;;10.14;59.94
20656;BME280;10487;53.320;8.672;2022-09-17T14:47:12;100498.47;;;10.10;60.01
20656;BME280;10487;53.320;8.672;2022-09-17T14:50:24;100494.09;;;10.09;59.88
20656;BME280;10487;53.320;8.672;2022-09-17T14:53:26;100490.69;;;10.07;59.95
20656;BME280;10487;53.320;8.672;2022-09-17T14:56:27;100499.66;;;10.06;60.03
20656;BME280;10487;53.320;8.672;2022-09-17T15:02:49;100500.63;;;10.05;59.88
20656;BME280;10487;53.320;8.672;2022-09-17T15:05:53;100505.22;;;10.03;59.95
20656;BME280;10487;53.320;8.672;2022-09-17T15:08:56;100517.56;;;10.04;59.98
20656;BME280;10487;53.320;8.672;2022-09-17T15:11:59;100510.56;;;10.03;59.95
20656;BME280;10487;53.320;8.672;2022-09-17T15:15:01;100513.22;;;10.03;59.97
20656;BME280;10487;53.320;8.672;2022-09-17T15:18:03;100523.75;;;10.05;59.88
20656;BME280;10487;53.320;8.672;2022-09-17T15:24:42;100520.75;;;10.09;60.06
20656;BME280;10487;53.320;8.672;2022-09-17T15:27:47;100559.66;;;10.12;59.94
20656;BME280;10487;53.320;8.672;2022-09-17T15:30:50;100530.25;;;10.13;60.04
20656;BME280;10487;53.320;8.672;2022-09-17T15:33:52;100532.16;;;10.11;59.84
20656;BME280;10487;53.320;8.672;2022-09-17T15:37:17;100531.75;;;10.05;59.79
20656;BME280;10487;53.320;8.672;2022-09-17T15:40:30;100549.91;;;10.00;59.88
20656;BME280;10487;53.320;8.672;2022-09-17T15:43:33;100553.88;;;9.94;59.90
20656;BME280;10487;53.320;8.672;2022-09-17T15:46:34;100550.69;;;9.89;59.77
20656;BME280;10487;53.320;8.672;2022-09-17T15:49:36;100538.69;;;9.83;59.94
20656;BME280;10487;53.320;8.672;2022-09-17T15:52:39;100536.25;;;9.80;59.95
20656;BME280;10487;53.320;8.672;2022-09-17T15:55:45;100537.34;;;9.78;59.99
20656;BME280;10487;53.320;8.672;2022-09-17T16:02:03;100537.69;;;9.73;60.06
20656;BME280;10487;53.320;8.672;2022-09-17T16:08:19;100550.13;;;9.73;60.12
20656;BME280;10487;53.320;8.672;2022-09-17T16:11:29;100557.16;;;9.74;60.05
20656;BME280;10487;53.320;8.672;2022-09-17T16:14:31;100568.66;;;9.74;60.14
20656;BME280;10487;53.320;8.672;2022-09-17T16:20:37;100566.50;;;9.79;60.20
20656;BME280;10487;53.320;8.672;2022-09-17T16:23:39;100565.44;;;9.82;60.23
20656;BME280;10487;53.320;8.672;2022-09-17T16:26:41;100567.03;;;9.84;60.15
20656;BME280;10487;53.320;8.672;2022-09-17T16:29:43;100577.56;;;9.86;60.15
20656;BME280;10487;53.320;8.672;2022-09-17T16:32:45;100585.47;;;9.87;60.12
20656;BME280;10487;53.320;8.672;2022-09-17T16:35:47;100598.66;;;9.89;60.05
20656;BME280;10487;53.320;8.672;2022-09-17T16:38:49;100594.31;;;9.88;60.03
20656;BME280;10487;53.320;8.672;2022-09-17T16:41:51;100596.22;;;9.86;59.94
20656;BME280;10487;53.320;8.672;2022-09-17T16:44:52;100586.75;;;9.82;60.11
20656;BME280;10487;53.320;8.672;2022-09-17T16:47:54;100592.31;;;9.79;60.01
20656;BME280;10487;53.320;8.672;2022-09-17T16:50:56;100592.56;;;9.76;60.00
20656;BME280;10487;53.320;8.672;2022-09-17T16:53:58;100579.44;;;9.73;60.03
20656;BME280;10487;53.320;8.672;2022-09-17T16:56:59;100583.06;;;9.72;60.00
20656;BME280;10487;53.320;8.672;2022-09-17T17:00:03;100584.03;;;9.71;60.07
20656;BME280;10487;53.320;8.672;2022-09-17T17:03:05;100586.78;;;9.69;60.10
20656;BME280;10487;53.320;8.672;2022-09-17T17:06:18;100600.13;;;9.69;60.08
20656;BME280;10487;53.320;8.672;2022-09-17T17:09:20;100609.09;;;9.68;60.22
20656;BME280;10487;53.320;8.672;2022-09-17T17:12:21;100606.44;;;9.68;60.12
20656;BME280;10487;53.320;8.672;2022-09-17T17:15:23;100608.22;;;9.68;60.12
20656;BME280;10487;53.320;8.672;2022-09-17T17:18:25;100610.91;;;9.68;60.00
20656;BME280;10487;53.320;8.672;2022-09-17T17:21:27;100606.31;;;9.70;60.15
20656;BME280;10487;53.320;8.672;2022-09-17T17:24:28;100607.03;;;9.72;60.05
20656;BME280;10487;53.320;8.672;2022-09-17T17:27:30;100600.84;;;9.71;59.92
20656;BME280;10487;53.320;8.672;2022-09-17T17:30:32;100606.81;;;9.75;59.94
20656;BME280;10487;53.320;8.672;2022-09-17T17:33:35;100609.38;;;9.76;59.92
20656;BME280;10487;53.320;8.672;2022-09-17T17:36:37;100608.41;;;9.77;59.90
20656;BME280;10487;53.320;8.672;2022-09-17T17:39:39;100618.00;;;9.80;59.91
20656;BME280;10487;53.320;8.672;2022-09-17T17:42:41;100623.34;;;9.80;59.94
20656;BME280;10487;53.320;8.672;2022-09-17T17:45:44;100623.34;;;9.80;59.90
20656;BME280;10487;53.320;8.672;2022-09-17T17:48:46;100635.91;;;9.78;59.82
20656;BME280;10487;53.320;8.672;2022-09-17T17:51:47;100644.78;;;9.78;59.84
20656;BME280;10487;53.320;8.672;2022-09-17T17:54:49;100634.25;;;10.01;59.63
20656;BME280;10487;53.320;8.672;2022-09-17T17:57:55;100638.94;;;9.97;59.82
20656;BME280;10487;53.320;8.672;2022-09-17T18:01:09;100632.19;;;10.04;60.13
20656;BME280;10487;53.320;8.672;2022-09-17T18:04:11;100642.31;;;10.12;59.80
20656;BME280;10487;53.320;8.672;2022-09-17T18:07:13;100652.97;;;10.12;59.82
20656;BME280;10487;53.320;8.672;2022-09-17T18:10:15;100661.09;;;10.10;59.76
20656;BME280;10487;53.320;8.672;2022-09-17T18:13:17;100664.84;;;10.08;59.52
20656;BME280;10487;53.320;8.672;2022-09-17T18:16:20;100667.59;;;10.06;59.75
20656;BME280;10487;53.320;8.672;2022-09-17T18:19:22;100668.56;;;10.05;59.63
20656;BME280;10487;53.320;8.672;2022-09-17T18:22:24;100667.94;;;10.02;59.61
20656;BME280;10487;53.320;8.672;2022-09-17T18:25:25;100664.41;;;10.01;59.80
20656;BME280;10487;53.320;8.672;2022-09-17T18:28:30;100662.81;;;9.99;59.52
20656;BME280;10487;53.320;8.672;2022-09-17T18:31:33;100661.13;;;9.98;59.84
20656;BME280;10487;53.320;8.672;2022-09-17T18:34:35;100662.19;;;9.95;59.58
20656;BME280;10487;53.320;8.672;2022-09-17T18:37:37;100664.13;;;9.93;59.68
20656;BME280;10487;53.320;8.672;2022-09-17T18:40:38;100657.94;;;9.93;59.64
20656;BME280;10487;53.320;8.672;2022-09-17T18:43:40;100664.97;;;9.93;59.58
20656;BME280;10487;53.320;8.672;2022-09-17T18:46:43;100661.47;;;9.93;59.59
20656;BME280;10487;53.320;8.672;2022-09-17T18:49:45;100671.16;;;9.94;59.52
20656;BME280;10487;53.320;8.672;2022-09-17T18:52:46;100666.03;;;9.91;59.34
20656;BME280;10487;53.320;8.672;2022-09-17T18:55:49;100671.38;;;9.91;59.51
20656;BME280;10487;53.320;8.672;2022-09-17T18:58:52;100686.53;;;9.90;59.45
20656;BME280;10487;53.320;8.672;2022-09-17T19:01:55;100673.06;;;9.92;59.43
20656;BME280;10487;53.320;8.672;2022-09-17T19:04:57;100678.53;;;9.90;59.45
20656;BME280;10487;53.320;8.672;2022-09-17T19:07:59;100674.03;;;9.91;59.35
20656;BME280;10487;53.320;8.672;2022-09-17T19:11:04;100682.03;;;9.91;59.31
20656;BME280;10487;53.320;8.672;2022-09-17T19:14:07;100690.03;;;9.91;59.31
20656;BME280;10487;53.320;8.672;2022-09-17T19:17:09;100715.84;;;9.90;59.33
20656;BME280;10487;53.320;8.672;2022-09-17T19:20:11;100707.84;;;9.90;59.39
20656;BME280;10487;53.320;8.672;2022-09-17T19:23:12;100712.09;;;9.93;59.24
20656;BME280;10487;53.320;8.672;2022-09-17T19:26:22;100709.44;;;9.93;59.18
20656;BME280;10487;53.320;8.672;2022-09-17T19:29:24;100705.06;;;9.92;59.19
20656;BME280;10487;53.320;8.672;2022-09-17T19:32:26;100707.72;;;9.92;59.30
20656;BME280;10487;53.320;8.672;2022-09-17T19:35:28;100711.25;;;9.93;59.20
20656;BME280;10487;53.320;8.672;2022-09-17T19:38:30;100718.19;;;9.95;59.17